sensor_id;sensor_type;location;lat;lon;timestamp;temperature;humidity
27188;DHT22;14708;50.872;5.306;2023-06-26T00:01:15;26.70;56.00
27188;DHT22;14708;50.872;5.306;2023-06-26T00:03:41;26.70;56.00
27188;DHT22;14708;50.872;5.306;2023-06-26T00:06:06;26.70;56.00
27188;DHT22;14708;50.872;5.306;2023-06-26T00:08:32;26.70;56.00
27188;DHT22;14708;50.872;5.306;2023-06-26T00:10:57;26.70;56.00
27188;DHT22;14708;50.872;5.306;2023-06-26T00:13:24;26.60;56.10
27188;DHT22;14708;50.872;5.306;2023-06-26T00:15:50;26.70;56.10
27188;DHT22;14708;50.872;5.306;2023-06-26T00:18:16;26.60;56.20
27188;DHT22;14708;50.872;5.306;2023-06-26T00:20:41;26.70;56.10
27188;DHT22;14708;50.872;5.306;2023-06-26T00:23:07;26.60;56.10
27188;DHT22;14708;50.872;5.306;2023-06-26T00:25:36;26.60;56.10
27188;DHT22;14708;50.872;5.306;2023-06-26T00:28:01;26.60;56.30
27188;DHT22;14708;50.872;5.306;2023-06-26T00:30:27;26.60;56.10
27188;DHT22;14708;50.872;5.306;2023-06-26T00:32:52;26.60;56.20
27188;DHT22;14708;50.872;5.306;2023-06-26T00:35:18;26.60;56.30
27188;DHT22;14708;50.872;5.306;2023-06-26T00:37:44;26.60;56.10
27188;DHT22;14708;50.872;5.306;2023-06-26T00:40:10;26.60;56.20
27188;DHT22;14708;50.872;5.306;2023-06-26T00:42:35;26.60;56.10
27188;DHT22;14708;50.872;5.306;2023-06-26T00:45:01;26.60;56.40
27188;DHT22;14708;50.872;5.306;2023-06-26T00:47:29;26.60;56.20
27188;DHT22;14708;50.872;5.306;2023-06-26T00:49:54;26.60;56.30
27188;DHT22;14708;50.872;5.306;2023-06-26T00:52:20;26.60;56.20
27188;DHT22;14708;50.872;5.306;2023-06-26T00:54:46;26.60;56.60
27188;DHT22;14708;50.872;5.306;2023-06-26T00:57:12;26.60;56.00
27188;DHT22;14708;50.872;5.306;2023-06-26T00:59:38;26.60;56.10
27188;DHT22;14708;50.872;5.306;2023-06-26T01:02:04;26.60;56.10
27188;DHT22;14708;50.872;5.306;2023-06-26T01:04:31;26.60;56.50
27188;DHT22;14708;50.872;5.306;2023-06-26T01:06:59;26.60;56.20
27188;DHT22;14708;50.872;5.306;2023-06-26T01:09:25;26.60;56.20
27188;DHT22;14708;50.872;5.306;2023-06-26T01:11:51;26.60;56.90
27188;DHT22;14708;50.872;5.306;2023-06-26T01:14:17;26.60;56.50
27188;DHT22;14708;50.872;5.306;2023-06-26T01:16:43;26.60;56.30
27188;DHT22;14708;50.872;5.306;2023-06-26T01:19:20;26.60;56.50
27188;DHT22;14708;50.872;5.306;2023-06-26T01:21:54;26.60;56.30
27188;DHT22;14708;50.872;5.306;2023-06-26T01:24:22;26.60;56.40
27188;DHT22;14708;50.872;5.306;2023-06-26T01:26:53;26.60;56.30
27188;DHT22;14708;50.872;5.306;2023-06-26T01:29:19;26.60;56.30
27188;DHT22;14708;50.872;5.306;2023-06-26T01:31:46;26.60;56.30
27188;DHT22;14708;50.872;5.306;2023-06-26T01:34:16;26.50;56.80
27188;DHT22;14708;50.872;5.306;2023-06-26T01:36:44;26.50;56.30
27188;DHT22;14708;50.872;5.306;2023-06-26T01:39:09;26.50;56.80
27188;DHT22;14708;50.872;5.306;2023-06-26T01:41:35;26.60;56.40
27188;DHT22;14708;50.872;5.306;2023-06-26T01:44:13;26.50;56.30
27188;DHT22;14708;50.872;5.306;2023-06-26T01:46:47;26.60;56.50
27188;DHT22;14708;50.872;5.306;2023-06-26T01:50:08;26.50;56.50
27188;DHT22;14708;50.872;5.306;2023-06-26T01:52:16;26.50;56.40
27188;DHT22;14708;50.872;5.306;2023-06-26T01:57:21;26.50;56.80
27188;DHT22;14708;50.872;5.306;2023-06-26T01:59:48;26.50;57.00
27188;DHT22;14708;50.872;5.306;2023-06-26T02:02:16;26.50;56.30
27188;DHT22;14708;50.872;5.306;2023-06-26T02:04:41;26.50;56.60
27188;DHT22;14708;50.872;5.306;2023-06-26T02:07:07;26.50;56.60
27188;DHT22;14708;50.872;5.306;2023-06-26T02:09:34;26.50;56.40
27188;DHT22;14708;50.872;5.306;2023-06-26T02:12:00;26.50;56.90
27188;DHT22;14708;50.872;5.306;2023-06-26T02:14:26;26.50;56.90
27188;DHT22;14708;50.872;5.306;2023-06-26T02:16:51;26.50;56.50
27188;DHT22;14708;50.872;5.306;2023-06-26T02:19:17;26.50;56.60
27188;DHT22;14708;50.872;5.306;2023-06-26T02:21:48;26.50;56.60
27188;DHT22;14708;50.872;5.306;2023-06-26T02:24:14;26.50;57.00
27188;DHT22;14708;50.872;5.306;2023-06-26T02:26:40;26.50;57.00
27188;DHT22;14708;50.872;5.306;2023-06-26T02:29:05;26.50;57.10
27188;DHT22;14708;50.872;5.306;2023-06-26T02:31:31;26.50;56.70
27188;DHT22;14708;50.872;5.306;2023-06-26T02:33:57;26.50;56.60
27188;DHT22;14708;50.872;5.306;2023-06-26T02:36:22;26.50;56.60
27188;DHT22;14708;50.872;5.306;2023-06-26T02:38:48;26.40;56.50
27188;DHT22;14708;50.872;5.306;2023-06-26T02:41:13;26.50;56.40
27188;DHT22;14708;50.872;5.306;2023-06-26T02:43:39;26.50;56.50
27188;DHT22;14708;50.872;5.306;2023-06-26T02:46:05;26.40;57.00
27188;DHT22;14708;50.872;5.306;2023-06-26T02:48:30;26.40;56.60
27188;DHT22;14708;50.872;5.306;2023-06-26T02:50:56;26.40;56.90
27188;DHT22;14708;50.872;5.306;2023-06-26T02:53:21;26.40;56.50
27188;DHT22;14708;50.872;5.306;2023-06-26T02:55:47;26.40;56.50
27188;DHT22;14708;50.872;5.306;2023-06-26T02:58:13;26.40;56.60
27188;DHT22;14708;50.872;5.306;2023-06-26T03:00:38;26.40;56.50
27188;DHT22;14708;50.872;5.306;2023-06-26T03:03:07;26.40;56.50
27188;DHT22;14708;50.872;5.306;2023-06-26T03:05:33;26.40;56.40
27188;DHT22;14708;50.872;5.306;2023-06-26T03:07:59;26.40;56.60
27188;DHT22;14708;50.872;5.306;2023-06-26T03:10:24;26.40;56.50
27188;DHT22;14708;50.872;5.306;2023-06-26T03:12:50;26.40;56.50
27188;DHT22;14708;50.872;5.306;2023-06-26T03:15:15;26.40;56.40
27188;DHT22;14708;50.872;5.306;2023-06-26T03:17:41;26.40;56.90
27188;DHT22;14708;50.872;5.306;2023-06-26T03:20:07;26.40;56.70
27188;DHT22;14708;50.872;5.306;2023-06-26T03:22:34;26.40;56.50
27188;DHT22;14708;50.872;5.306;2023-06-26T03:24:59;26.40;56.50
27188;DHT22;14708;50.872;5.306;2023-06-26T03:27:25;26.40;56.40
27188;DHT22;14708;50.872;5.306;2023-06-26T03:29:52;26.40;56.60
27188;DHT22;14708;50.872;5.306;2023-06-26T03:32:18;26.40;57.30
27188;DHT22;14708;50.872;5.306;2023-06-26T03:34:43;26.40;56.50
27188;DHT22;14708;50.872;5.306;2023-06-26T03:37:09;26.40;56.50
27188;DHT22;14708;50.872;5.306;2023-06-26T03:39:35;26.40;56.60
27188;DHT22;14708;50.872;5.306;2023-06-26T03:42:00;26.40;56.40
27188;DHT22;14708;50.872;5.306;2023-06-26T03:44:27;26.40;56.50
27188;DHT22;14708;50.872;5.306;2023-06-26T03:46:53;26.40;56.50
27188;DHT22;14708;50.872;5.306;2023-06-26T03:49:18;26.40;56.50
27188;DHT22;14708;50.872;5.306;2023-06-26T03:51:45;26.40;56.70
27188;DHT22;14708;50.872;5.306;2023-06-26T03:54:10;26.40;56.90
27188;DHT22;14708;50.872;5.306;2023-06-26T03:56:36;26.40;56.60
27188;DHT22;14708;50.872;5.306;2023-06-26T03:59:02;26.40;56.50
27188;DHT22;14708;50.872;5.306;2023-06-26T04:01:28;26.30;56.70
27188;DHT22;14708;50.872;5.306;2023-06-26T04:03:54;26.40;56.60
27188;DHT22;14708;50.872;5.306;2023-06-26T04:06:19;26.40;56.50
27188;DHT22;14708;50.872;5.306;2023-06-26T04:08:45;26.40;56.50
27188;DHT22;14708;50.872;5.306;2023-06-26T04:11:11;26.40;56.60
27188;DHT22;14708;50.872;5.306;2023-06-26T04:13:36;26.40;56.60
27188;DHT22;14708;50.872;5.306;2023-06-26T04:16:02;26.40;56.60
27188;DHT22;14708;50.872;5.306;2023-06-26T04:18:28;26.40;56.50
27188;DHT22;14708;50.872;5.306;2023-06-26T04:21:09;26.40;56.70
27188;DHT22;14708;50.872;5.306;2023-06-26T04:23:37;26.30;56.40
27188;DHT22;14708;50.872;5.306;2023-06-26T04:26:03;26.40;56.80
27188;DHT22;14708;50.872;5.306;2023-06-26T04:28:30;26.40;56.80
27188;DHT22;14708;50.872;5.306;2023-06-26T04:30:56;26.40;56.80
27188;DHT22;14708;50.872;5.306;2023-06-26T04:33:22;26.40;56.50
27188;DHT22;14708;50.872;5.306;2023-06-26T04:35:48;26.40;56.40
27188;DHT22;14708;50.872;5.306;2023-06-26T04:38:17;26.40;56.40
27188;DHT22;14708;50.872;5.306;2023-06-26T04:40:43;26.40;56.50
27188;DHT22;14708;50.872;5.306;2023-06-26T04:43:08;26.40;56.90
27188;DHT22;14708;50.872;5.306;2023-06-26T04:45:34;26.40;56.30
27188;DHT22;14708;50.872;5.306;2023-06-26T04:48:00;26.50;56.60
27188;DHT22;14708;50.872;5.306;2023-06-26T04:50:26;26.50;56.10
27188;DHT22;14708;50.872;5.306;2023-06-26T04:52:54;26.60;55.90
27188;DHT22;14708;50.872;5.306;2023-06-26T04:55:20;26.60;55.80
27188;DHT22;14708;50.872;5.306;2023-06-26T04:57:47;26.60;55.80
27188;DHT22;14708;50.872;5.306;2023-06-26T05:00:13;26.60;55.80
27188;DHT22;14708;50.872;5.306;2023-06-26T05:02:39;26.60;55.90
27188;DHT22;14708;50.872;5.306;2023-06-26T05:05:05;26.70;55.70
27188;DHT22;14708;50.872;5.306;2023-06-26T05:07:30;26.70;55.90
27188;DHT22;14708;50.872;5.306;2023-06-26T05:09:56;26.70;55.90
27188;DHT22;14708;50.872;5.306;2023-06-26T05:12:22;26.70;55.90
27188;DHT22;14708;50.872;5.306;2023-06-26T05:14:47;26.70;55.80
27188;DHT22;14708;50.872;5.306;2023-06-26T05:17:16;26.80;56.00
27188;DHT22;14708;50.872;5.306;2023-06-26T05:19:41;26.80;55.50
27188;DHT22;14708;50.872;5.306;2023-06-26T05:22:07;26.80;55.40
27188;DHT22;14708;50.872;5.306;2023-06-26T05:24:37;26.80;55.40
27188;DHT22;14708;50.872;5.306;2023-06-26T05:27:04;26.90;55.60
27188;DHT22;14708;50.872;5.306;2023-06-26T05:29:31;26.90;55.20
27188;DHT22;14708;50.872;5.306;2023-06-26T05:31:57;27.00;55.50
27188;DHT22;14708;50.872;5.306;2023-06-26T05:34:23;27.10;54.90
27188;DHT22;14708;50.872;5.306;2023-06-26T05:36:51;27.10;55.00
27188;DHT22;14708;50.872;5.306;2023-06-26T05:39:17;27.10;54.80
27188;DHT22;14708;50.872;5.306;2023-06-26T05:41:44;27.10;55.10
27188;DHT22;14708;50.872;5.306;2023-06-26T05:44:10;27.20;55.20
27188;DHT22;14708;50.872;5.306;2023-06-26T05:46:36;27.20;55.30
27188;DHT22;14708;50.872;5.306;2023-06-26T05:49:02;27.30;54.70
27188;DHT22;14708;50.872;5.306;2023-06-26T05:51:28;27.30;54.60
27188;DHT22;14708;50.872;5.306;2023-06-26T05:53:54;27.30;54.90
27188;DHT22;14708;50.872;5.306;2023-06-26T05:56:20;27.30;54.90
27188;DHT22;14708;50.872;5.306;2023-06-26T05:58:46;27.30;55.30
27188;DHT22;14708;50.872;5.306;2023-06-26T06:01:12;27.30;54.70
27188;DHT22;14708;50.872;5.306;2023-06-26T06:03:39;27.30;54.80
27188;DHT22;14708;50.872;5.306;2023-06-26T06:06:05;27.30;54.80
27188;DHT22;14708;50.872;5.306;2023-06-26T06:08:30;27.20;54.90
27188;DHT22;14708;50.872;5.306;2023-06-26T06:10:56;27.30;55.30
27188;DHT22;14708;50.872;5.306;2023-06-26T06:13:21;27.20;55.20
27188;DHT22;14708;50.872;5.306;2023-06-26T06:15:47;27.20;54.80
27188;DHT22;14708;50.872;5.306;2023-06-26T06:18:13;27.30;55.40
27188;DHT22;14708;50.872;5.306;2023-06-26T06:20:38;27.30;54.80
27188;DHT22;14708;50.872;5.306;2023-06-26T06:23:04;27.40;54.70
27188;DHT22;14708;50.872;5.306;2023-06-26T06:25:29;27.40;54.80
27188;DHT22;14708;50.872;5.306;2023-06-26T06:27:55;27.50;54.50
27188;DHT22;14708;50.872;5.306;2023-06-26T06:30:20;27.50;55.00
27188;DHT22;14708;50.872;5.306;2023-06-26T06:32:46;27.50;54.50
27188;DHT22;14708;50.872;5.306;2023-06-26T06:35:17;27.50;54.60
27188;DHT22;14708;50.872;5.306;2023-06-26T06:37:42;27.50;54.50
27188;DHT22;14708;50.872;5.306;2023-06-26T06:40:11;27.60;54.80
27188;DHT22;14708;50.872;5.306;2023-06-26T06:42:37;27.50;53.60
27188;DHT22;14708;50.872;5.306;2023-06-26T06:45:04;27.30;52.10
27188;DHT22;14708;50.872;5.306;2023-06-26T06:47:30;27.20;51.80
27188;DHT22;14708;50.872;5.306;2023-06-26T06:49:56;27.10;51.30
27188;DHT22;14708;50.872;5.306;2023-06-26T06:52:21;27.00;51.60
27188;DHT22;14708;50.872;5.306;2023-06-26T06:54:57;26.90;51.10
27188;DHT22;14708;50.872;5.306;2023-06-26T06:57:30;26.90;49.40
27188;DHT22;14708;50.872;5.306;2023-06-26T06:59:56;27.00;48.90
27188;DHT22;14708;50.872;5.306;2023-06-26T07:02:21;27.00;48.10
27188;DHT22;14708;50.872;5.306;2023-06-26T07:04:47;27.00;47.50
27188;DHT22;14708;50.872;5.306;2023-06-26T07:07:13;26.90;47.70
27188;DHT22;14708;50.872;5.306;2023-06-26T07:09:41;26.80;47.40
27188;DHT22;14708;50.872;5.306;2023-06-26T07:12:07;26.60;48.00
27188;DHT22;14708;50.872;5.306;2023-06-26T07:14:33;26.50;48.60
27188;DHT22;14708;50.872;5.306;2023-06-26T07:16:58;26.40;48.80
27188;DHT22;14708;50.872;5.306;2023-06-26T07:19:24;26.40;49.10
27188;DHT22;14708;50.872;5.306;2023-06-26T07:21:49;26.40;49.00
27188;DHT22;14708;50.872;5.306;2023-06-26T07:24:15;26.50;48.80
27188;DHT22;14708;50.872;5.306;2023-06-26T07:26:41;26.60;48.40
27188;DHT22;14708;50.872;5.306;2023-06-26T07:29:06;26.60;48.40
27188;DHT22;14708;50.872;5.306;2023-06-26T07:31:32;26.60;48.70
27188;DHT22;14708;50.872;5.306;2023-06-26T07:33:57;26.60;48.00
27188;DHT22;14708;50.872;5.306;2023-06-26T07:36:23;26.70;48.10
27188;DHT22;14708;50.872;5.306;2023-06-26T07:38:48;26.70;47.90
27188;DHT22;14708;50.872;5.306;2023-06-26T07:41:14;26.60;48.20
27188;DHT22;14708;50.872;5.306;2023-06-26T07:43:40;26.60;48.70
27188;DHT22;14708;50.872;5.306;2023-06-26T07:46:05;26.60;48.30
27188;DHT22;14708;50.872;5.306;2023-06-26T07:48:31;26.60;47.90
27188;DHT22;14708;50.872;5.306;2023-06-26T07:50:56;26.70;48.50
27188;DHT22;14708;50.872;5.306;2023-06-26T07:53:22;26.70;48.00
27188;DHT22;14708;50.872;5.306;2023-06-26T07:55:47;26.60;48.30
27188;DHT22;14708;50.872;5.306;2023-06-26T07:58:13;26.60;48.40
27188;DHT22;14708;50.872;5.306;2023-06-26T08:00:40;26.60;48.80
27188;DHT22;14708;50.872;5.306;2023-06-26T08:03:06;26.60;48.70
27188;DHT22;14708;50.872;5.306;2023-06-26T08:05:31;26.60;48.70
27188;DHT22;14708;50.872;5.306;2023-06-26T08:07:57;26.60;48.60
27188;DHT22;14708;50.872;5.306;2023-06-26T08:10:23;26.60;48.30
27188;DHT22;14708;50.872;5.306;2023-06-26T08:12:48;26.60;48.20
27188;DHT22;14708;50.872;5.306;2023-06-26T08:15:16;26.60;48.30
27188;DHT22;14708;50.872;5.306;2023-06-26T08:17:41;26.50;48.30
27188;DHT22;14708;50.872;5.306;2023-06-26T08:20:07;26.50;48.20
27188;DHT22;14708;50.872;5.306;2023-06-26T08:22:36;26.50;48.40
27188;DHT22;14708;50.872;5.306;2023-06-26T08:25:02;26.60;48.40
27188;DHT22;14708;50.872;5.306;2023-06-26T08:27:28;26.60;48.40
27188;DHT22;14708;50.872;5.306;2023-06-26T08:29:54;26.60;49.00
27188;DHT22;14708;50.872;5.306;2023-06-26T08:32:19;26.50;48.30
27188;DHT22;14708;50.872;5.306;2023-06-26T08:34:45;26.60;48.40
27188;DHT22;14708;50.872;5.306;2023-06-26T08:37:10;26.50;48.30
27188;DHT22;14708;50.872;5.306;2023-06-26T08:39:36;26.50;48.30
27188;DHT22;14708;50.872;5.306;2023-06-26T08:42:01;26.60;48.50
27188;DHT22;14708;50.872;5.306;2023-06-26T08:44:27;26.60;48.50
27188;DHT22;14708;50.872;5.306;2023-06-26T08:46:53;26.60;48.50
27188;DHT22;14708;50.872;5.306;2023-06-26T08:49:21;26.50;48.90
27188;DHT22;14708;50.872;5.306;2023-06-26T08:52:06;26.50;48.50
27188;DHT22;14708;50.872;5.306;2023-06-26T08:54:38;26.60;48.60
27188;DHT22;14708;50.872;5.306;2023-06-26T08:57:06;26.60;48.60
27188;DHT22;14708;50.872;5.306;2023-06-26T08:59:32;26.60;48.50
27188;DHT22;14708;50.872;5.306;2023-06-26T09:01:58;26.60;48.80
27188;DHT22;14708;50.872;5.306;2023-06-26T09:04:25;26.60;48.70
27188;DHT22;14708;50.872;5.306;2023-06-26T09:06:50;26.60;48.50
27188;DHT22;14708;50.872;5.306;2023-06-26T09:09:16;26.60;48.50
27188;DHT22;14708;50.872;5.306;2023-06-26T09:11:42;26.60;48.50
27188;DHT22;14708;50.872;5.306;2023-06-26T09:14:07;26.60;48.50
27188;DHT22;14708;50.872;5.306;2023-06-26T09:16:40;26.60;48.60
27188;DHT22;14708;50.872;5.306;2023-06-26T09:19:11;26.60;48.50
27188;DHT22;14708;50.872;5.306;2023-06-26T09:21:39;26.50;48.30
27188;DHT22;14708;50.872;5.306;2023-06-26T09:24:06;26.60;48.20
27188;DHT22;14708;50.872;5.306;2023-06-26T09:26:32;26.60;48.30
27188;DHT22;14708;50.872;5.306;2023-06-26T09:28:57;26.60;48.60
27188;DHT22;14708;50.872;5.306;2023-06-26T09:31:25;26.60;47.90
27188;DHT22;14708;50.872;5.306;2023-06-26T09:33:57;26.60;48.30
27188;DHT22;14708;50.872;5.306;2023-06-26T09:36:23;26.70;48.00
27188;DHT22;14708;50.872;5.306;2023-06-26T09:38:50;26.60;47.60
27188;DHT22;14708;50.872;5.306;2023-06-26T09:41:17;26.60;47.30
27188;DHT22;14708;50.872;5.306;2023-06-26T09:43:47;26.60;46.90
27188;DHT22;14708;50.872;5.306;2023-06-26T09:46:17;26.60;46.90
27188;DHT22;14708;50.872;5.306;2023-06-26T09:48:43;26.50;47.20
27188;DHT22;14708;50.872;5.306;2023-06-26T09:51:09;26.50;47.70
27188;DHT22;14708;50.872;5.306;2023-06-26T09:53:35;26.60;47.30
27188;DHT22;14708;50.872;5.306;2023-06-26T09:56:10;26.60;46.60
27188;DHT22;14708;50.872;5.306;2023-06-26T09:58:41;26.60;46.30
27188;DHT22;14708;50.872;5.306;2023-06-26T10:01:07;26.60;46.00
27188;DHT22;14708;50.872;5.306;2023-06-26T10:03:35;26.60;45.70
27188;DHT22;14708;50.872;5.306;2023-06-26T10:06:02;26.50;45.70
27188;DHT22;14708;50.872;5.306;2023-06-26T10:08:29;26.50;45.80
27188;DHT22;14708;50.872;5.306;2023-06-26T10:10:56;26.60;45.60
27188;DHT22;14708;50.872;5.306;2023-06-26T10:13:35;26.60;45.20
27188;DHT22;14708;50.872;5.306;2023-06-26T10:16:03;26.60;45.70
27188;DHT22;14708;50.872;5.306;2023-06-26T10:18:32;26.70;45.00
27188;DHT22;14708;50.872;5.306;2023-06-26T10:21:00;26.70;45.40
27188;DHT22;14708;50.872;5.306;2023-06-26T10:23:28;26.70;44.90
27188;DHT22;14708;50.872;5.306;2023-06-26T10:25:58;26.70;44.30
27188;DHT22;14708;50.872;5.306;2023-06-26T10:28:27;26.80;44.30
27188;DHT22;14708;50.872;5.306;2023-06-26T10:30:53;26.70;43.70
27188;DHT22;14708;50.872;5.306;2023-06-26T10:33:20;26.80;43.50
27188;DHT22;14708;50.872;5.306;2023-06-26T10:35:46;26.60;43.70
27188;DHT22;14708;50.872;5.306;2023-06-26T10:38:12;26.60;43.60
27188;DHT22;14708;50.872;5.306;2023-06-26T10:40:43;26.60;43.70
27188;DHT22;14708;50.872;5.306;2023-06-26T10:43:12;26.60;43.80
27188;DHT22;14708;50.872;5.306;2023-06-26T10:45:46;26.60;43.30
27188;DHT22;14708;50.872;5.306;2023-06-26T10:48:17;26.60;43.10
27188;DHT22;14708;50.872;5.306;2023-06-26T10:50:43;26.60;42.40
27188;DHT22;14708;50.872;5.306;2023-06-26T10:56:01;26.60;42.50
27188;DHT22;14708;50.872;5.306;2023-06-26T10:58:39;26.60;42.50
27188;DHT22;14708;50.872;5.306;2023-06-26T11:03:42;26.50;42.80
27188;DHT22;14708;50.872;5.306;2023-06-26T11:06:11;26.40;42.80
27188;DHT22;14708;50.872;5.306;2023-06-26T11:08:54;26.40;43.40
27188;DHT22;14708;50.872;5.306;2023-06-26T11:11:21;26.40;42.60
27188;DHT22;14708;50.872;5.306;2023-06-26T11:13:47;26.40;43.10
27188;DHT22;14708;50.872;5.306;2023-06-26T11:16:14;26.40;42.70
27188;DHT22;14708;50.872;5.306;2023-06-26T11:18:43;26.40;42.40
27188;DHT22;14708;50.872;5.306;2023-06-26T11:21:11;26.50;42.60
27188;DHT22;14708;50.872;5.306;2023-06-26T11:23:40;26.50;42.50
27188;DHT22;14708;50.872;5.306;2023-06-26T11:26:18;26.50;42.50
27188;DHT22;14708;50.872;5.306;2023-06-26T11:28:55;26.50;42.20
27188;DHT22;14708;50.872;5.306;2023-06-26T11:31:32;26.40;42.70
27188;DHT22;14708;50.872;5.306;2023-06-26T11:34:03;26.40;42.70
27188;DHT22;14708;50.872;5.306;2023-06-26T11:36:30;26.30;42.50
27188;DHT22;14708;50.872;5.306;2023-06-26T11:39:02;26.40;42.30
27188;DHT22;14708;50.872;5.306;2023-06-26T11:41:38;26.40;42.30
27188;DHT22;14708;50.872;5.306;2023-06-26T11:44:05;26.40;42.30
27188;DHT22;14708;50.872;5.306;2023-06-26T11:46:32;26.50;41.60
27188;DHT22;14708;50.872;5.306;2023-06-26T11:48:59;26.60;40.90
27188;DHT22;14708;50.872;5.306;2023-06-26T11:51:27;26.60;40.40
27188;DHT22;14708;50.872;5.306;2023-06-26T11:53:53;26.50;40.60
27188;DHT22;14708;50.872;5.306;2023-06-26T11:56:19;26.60;40.10
27188;DHT22;14708;50.872;5.306;2023-06-26T12:04:05;26.60;39.20
27188;DHT22;14708;50.872;5.306;2023-06-26T12:06:32;26.60;39.40
27188;DHT22;14708;50.872;5.306;2023-06-26T12:09:00;26.60;40.20
27188;DHT22;14708;50.872;5.306;2023-06-26T12:11:27;26.60;40.80
27188;DHT22;14708;50.872;5.306;2023-06-26T12:13:54;26.60;41.50
27188;DHT22;14708;50.872;5.306;2023-06-26T12:16:20;26.70;41.40
27188;DHT22;14708;50.872;5.306;2023-06-26T12:18:46;26.60;41.60
27188;DHT22;14708;50.872;5.306;2023-06-26T12:21:49;26.70;41.60
27188;DHT22;14708;50.872;5.306;2023-06-26T12:24:20;26.60;41.60
27188;DHT22;14708;50.872;5.306;2023-06-26T12:26:50;26.70;41.90
27188;DHT22;14708;50.872;5.306;2023-06-26T12:29:18;26.70;42.00
27188;DHT22;14708;50.872;5.306;2023-06-26T12:31:45;26.60;42.30
27188;DHT22;14708;50.872;5.306;2023-06-26T12:34:13;26.70;42.40
27188;DHT22;14708;50.872;5.306;2023-06-26T12:36:43;26.70;42.80
27188;DHT22;14708;50.872;5.306;2023-06-26T12:39:10;26.70;42.50
27188;DHT22;14708;50.872;5.306;2023-06-26T12:41:47;26.70;42.10
27188;DHT22;14708;50.872;5.306;2023-06-26T12:44:18;26.70;43.10
27188;DHT22;14708;50.872;5.306;2023-06-26T12:46:43;26.60;42.30
27188;DHT22;14708;50.872;5.306;2023-06-26T12:49:12;26.70;42.20
27188;DHT22;14708;50.872;5.306;2023-06-26T12:51:38;26.70;41.50
27188;DHT22;14708;50.872;5.306;2023-06-26T12:54:05;26.90;42.70
27188;DHT22;14708;50.872;5.306;2023-06-26T12:56:31;26.90;42.80
27188;DHT22;14708;50.872;5.306;2023-06-26T12:58:57;27.00;42.80
27188;DHT22;14708;50.872;5.306;2023-06-26T13:01:23;26.90;42.70
27188;DHT22;14708;50.872;5.306;2023-06-26T13:03:50;26.90;43.10
27188;DHT22;14708;50.872;5.306;2023-06-26T13:06:16;26.80;42.00
27188;DHT22;14708;50.872;5.306;2023-06-26T13:08:42;26.80;41.50
27188;DHT22;14708;50.872;5.306;2023-06-26T13:11:09;26.70;42.00
27188;DHT22;14708;50.872;5.306;2023-06-26T13:13:34;26.80;41.10
27188;DHT22;14708;50.872;5.306;2023-06-26T13:16:00;26.80;41.00
27188;DHT22;14708;50.872;5.306;2023-06-26T13:18:26;26.90;41.00
27188;DHT22;14708;50.872;5.306;2023-06-26T13:20:51;26.80;40.70
27188;DHT22;14708;50.872;5.306;2023-06-26T13:23:17;27.00;40.30
27188;DHT22;14708;50.872;5.306;2023-06-26T13:25:44;26.90;39.90
27188;DHT22;14708;50.872;5.306;2023-06-26T13:28:10;26.90;40.80
27188;DHT22;14708;50.872;5.306;2023-06-26T13:30:36;26.90;39.90
27188;DHT22;14708;50.872;5.306;2023-06-26T13:33:01;26.80;40.00
27188;DHT22;14708;50.872;5.306;2023-06-26T13:35:27;26.80;39.60
27188;DHT22;14708;50.872;5.306;2023-06-26T13:37:53;26.90;39.60
27188;DHT22;14708;50.872;5.306;2023-06-26T13:40:19;26.80;39.30
27188;DHT22;14708;50.872;5.306;2023-06-26T13:42:44;26.80;39.90
27188;DHT22;14708;50.872;5.306;2023-06-26T13:45:10;26.80;39.60
27188;DHT22;14708;50.872;5.306;2023-06-26T13:47:37;26.90;39.30
27188;DHT22;14708;50.872;5.306;2023-06-26T13:50:09;26.90;39.10
27188;DHT22;14708;50.872;5.306;2023-06-26T13:52:35;26.80;39.10
27188;DHT22;14708;50.872;5.306;2023-06-26T13:55:01;26.80;39.40
27188;DHT22;14708;50.872;5.306;2023-06-26T13:57:30;26.80;39.40
27188;DHT22;14708;50.872;5.306;2023-06-26T13:59:56;26.70;39.60
27188;DHT22;14708;50.872;5.306;2023-06-26T14:02:22;26.80;39.50
27188;DHT22;14708;50.872;5.306;2023-06-26T14:04:47;26.80;39.60
27188;DHT22;14708;50.872;5.306;2023-06-26T14:07:13;26.80;40.00
27188;DHT22;14708;50.872;5.306;2023-06-26T14:09:40;26.80;40.00
27188;DHT22;14708;50.872;5.306;2023-06-26T14:12:07;26.80;40.20
27188;DHT22;14708;50.872;5.306;2023-06-26T14:14:32;26.80;40.30
27188;DHT22;14708;50.872;5.306;2023-06-26T14:16:58;26.80;40.00
27188;DHT22;14708;50.872;5.306;2023-06-26T14:19:25;26.80;40.10
27188;DHT22;14708;50.872;5.306;2023-06-26T14:21:51;26.80;39.20
27188;DHT22;14708;50.872;5.306;2023-06-26T14:24:17;26.80;39.40
27188;DHT22;14708;50.872;5.306;2023-06-26T14:26:43;26.80;40.30
27188;DHT22;14708;50.872;5.306;2023-06-26T14:29:08;26.80;39.80
27188;DHT22;14708;50.872;5.306;2023-06-26T14:31:34;26.80;39.40
27188;DHT22;14708;50.872;5.306;2023-06-26T14:33:59;26.80;39.80
27188;DHT22;14708;50.872;5.306;2023-06-26T14:36:25;26.80;40.10
27188;DHT22;14708;50.872;5.306;2023-06-26T14:38:52;26.80;39.90
27188;DHT22;14708;50.872;5.306;2023-06-26T14:41:18;26.80;39.40
27188;DHT22;14708;50.872;5.306;2023-06-26T14:43:43;26.80;39.30
27188;DHT22;14708;50.872;5.306;2023-06-26T14:46:11;26.80;38.60
27188;DHT22;14708;50.872;5.306;2023-06-26T14:48:36;26.90;39.50
27188;DHT22;14708;50.872;5.306;2023-06-26T14:51:02;26.90;38.60
27188;DHT22;14708;50.872;5.306;2023-06-26T14:53:27;26.90;38.90
27188;DHT22;14708;50.872;5.306;2023-06-26T14:55:53;26.90;38.80
27188;DHT22;14708;50.872;5.306;2023-06-26T14:58:19;26.90;39.10
27188;DHT22;14708;50.872;5.306;2023-06-26T15:00:44;26.90;38.90
27188;DHT22;14708;50.872;5.306;2023-06-26T15:03:10;26.90;39.50
27188;DHT22;14708;50.872;5.306;2023-06-26T15:05:36;26.90;39.10
27188;DHT22;14708;50.872;5.306;2023-06-26T15:08:01;26.90;39.50
27188;DHT22;14708;50.872;5.306;2023-06-26T15:10:27;26.90;39.20
27188;DHT22;14708;50.872;5.306;2023-06-26T15:12:52;26.80;38.90
27188;DHT22;14708;50.872;5.306;2023-06-26T15:15:19;26.80;38.90
27188;DHT22;14708;50.872;5.306;2023-06-26T15:17:44;26.90;39.70
27188;DHT22;14708;50.872;5.306;2023-06-26T15:20:10;27.10;39.30
27188;DHT22;14708;50.872;5.306;2023-06-26T15:22:36;27.20;39.40
27188;DHT22;14708;50.872;5.306;2023-06-26T15:25:02;27.20;39.20
27188;DHT22;14708;50.872;5.306;2023-06-26T15:27:27;27.30;39.40
27188;DHT22;14708;50.872;5.306;2023-06-26T15:29:53;27.30;39.00
27188;DHT22;14708;50.872;5.306;2023-06-26T15:32:19;27.20;39.10
27188;DHT22;14708;50.872;5.306;2023-06-26T15:34:45;27.20;39.20
27188;DHT22;14708;50.872;5.306;2023-06-26T15:37:12;27.10;39.10
27188;DHT22;14708;50.872;5.306;2023-06-26T15:39:37;27.20;39.10
27188;DHT22;14708;50.872;5.306;2023-06-26T15:42:04;27.20;39.20